KBGM/BGM METAR and TAF weather

Enter ICAO airport designator
Station Type Date Time Source
KBGM METAR 2018/01/21 11:53 UTC NOAA

KBGM 211153Z 28003KT 10SM CLR M02/M04 A3009 RMK AO2 SLP205 T10171039 10006 21022 51018


Station Type Date Time Source
KBGM Decoded METAR 2018/01/21 11:53 UTC NOAA

BINGHAMTON REGIONAL AIRPORT, NY, United States (KBGM) 42-12N 75-59W 492M
Jan 21, 2018 - 06:53 AM EST / 2018.01.21 1153 UTC
Wind: from the W (280 degrees) at 3 MPH (3 KT):0
Visibility: 10 mile(s):0
Sky conditions: clear
Temperature: 28.9 F (-1.7 C)
Dew Point: 25.0 F (-3.9 C)
Relative Humidity: 84%
Pressure (altimeter): 30.09 in. Hg (1018 hPa)
Pressure tendency: 0.05 inches (1.8 hPa) higher than three hours ago
ob: KBGM 211153Z 28003KT 10SM CLR M02/M04 A3009 RMK AO2 SLP205 T10171039 10006 21022 51018
cycle: 12

Station Type Date Time Source
KBGM TAF 2018/01/21 12:24 UTC NOAA

TAF KBGM 211120Z 2112/2212 23006KT P6SM BKN200
FM211900 19004KT P6SM OVC015
FM220000 19005KT P6SM OVC005


Example: see airport list